Time;durP1;ratioP1;P1;durP2;ratioP2;P2;SDS_P1;SDS_P2;PMS_P1;PMS_P2;Temp;Humidity;BMP_temperature;BMP_pressure;BME280_temperature;BME280_humidity;BME280_pressure;Samples;Min_cycle;Max_cycle;Signal;HPM_P1;HPM_P2
2021/11/27 00:02:12;;;;;;;;;;;5.60;91.20;;;;;;4637292;28;19964;-76
2021/11/27 00:04:28;;;;;;;;;;;5.60;91.40;;;;;;4621300;28;19986;-76
2021/11/27 00:06:44;;;;;;;;;;;5.60;91.20;;;;;;4620768;28;19943;-76
2021/11/27 00:09:01;;;;;;;;;;;5.50;91.20;;;;;;4619453;28;19967;-75
2021/11/27 00:11:17;;;;;;;;;;;5.50;91.40;;;;;;4640907;28;19961;-76
2021/11/27 00:13:34;;;;;;;;;;;5.50;91.30;;;;;;4638590;28;19928;-76
2021/11/27 00:15:52;;;;;;;;;;;5.50;91.30;;;;;;4622412;28;20052;-76
2021/11/27 00:18:09;;;;;;;;;;;5.50;91.20;;;;;;4639462;28;19966;-77
2021/11/27 00:20:30;;;;;;;;;;;5.40;91.10;;;;;;4648072;28;19920;-76
2021/11/27 00:22:46;;;;;;;;;;;5.40;91.30;;;;;;4649178;28;20401;-77
2021/11/27 00:25:03;;;;;;;;;;;5.40;91.40;;;;;;4631310;28;19928;-77
2021/11/27 00:27:19;;;;;;;;;;;5.40;91.50;;;;;;4631397;28;20353;-77
2021/11/27 00:29:35;;;;;;;;;;;5.40;91.50;;;;;;4648074;28;20279;-77
2021/11/27 00:31:53;;;;;;;;;;;5.50;91.40;;;;;;4647822;28;19952;-77
2021/11/27 00:34:09;;;;;;;;;;;5.50;91.50;;;;;;4620514;28;20369;-76
2021/11/27 00:36:26;;;;;;;;;;;5.50;91.30;;;;;;4639977;28;19921;-76
2021/11/27 00:38:44;;;;;;;;;;;5.40;91.30;;;;;;4621272;28;19964;-76
2021/11/27 00:41:00;;;;;;;;;;;5.40;91.10;;;;;;4621246;28;19999;-77
2021/11/27 00:43:18;;;;;;;;;;;5.40;91.40;;;;;;4622346;28;20046;-76
2021/11/27 00:45:37;;;;;;;;;;;5.40;91.50;;;;;;4638808;28;19955;-77
2021/11/27 00:47:56;;;;;;;;;;;5.40;91.40;;;;;;4636470;28;19920;-77
2021/11/27 00:50:16;;;;;;;;;;;5.40;91.40;;;;;;4623053;28;20007;-77
2021/11/27 00:52:32;;;;;;;;;;;5.40;91.60;;;;;;4631680;28;19980;-77
2021/11/27 00:54:49;;;;;;;;;;;5.40;91.50;;;;;;4631781;28;19920;-78
2021/11/27 00:57:05;;;;;;;;;;;5.50;91.50;;;;;;4632535;28;20011;-77
2021/11/27 00:59:24;;;;;;;;;;;5.40;91.30;;;;;;4632922;28;19960;-77
2021/11/27 01:01:40;;;;;;;;;;;5.40;91.20;;;;;;4615177;28;19921;-77
2021/11/27 01:03:59;;;;;;;;;;;5.40;91.20;;;;;;4632768;28;19963;-77
2021/11/27 01:06:19;;;;;;;;;;;5.40;91.30;;;;;;4617135;28;19956;-77
2021/11/27 01:08:38;;;;;;;;;;;5.40;91.30;;;;;;4616115;28;19943;-77
2021/11/27 01:10:58;;;;;;;;;;;5.40;91.40;;;;;;4635372;28;19927;-77
2021/11/27 01:13:15;;;;;;;;;;;5.40;91.40;;;;;;4632122;28;20108;-77
2021/11/27 01:15:32;;;;;;;;;;;5.30;91.30;;;;;;4634160;28;20320;-77
2021/11/27 01:17:49;;;;;;;;;;;5.30;91.40;;;;;;4651967;28;19920;-77
2021/11/27 01:20:08;;;;;;;;;;;5.30;91.40;;;;;;4634593;28;20025;-77
2021/11/27 01:22:26;;;;;;;;;;;5.30;91.30;;;;;;4634200;28;19951;-77
2021/11/27 01:24:43;;;;;;;;;;;5.30;91.30;;;;;;4634519;28;19948;-77
2021/11/27 01:27:01;;;;;;;;;;;5.20;91.30;;;;;;4634118;28;19944;-77
2021/11/27 01:29:24;;;;;;;;;;;5.30;91.60;;;;;;4634605;28;19935;-77
2021/11/27 01:31:41;;;;;;;;;;;5.30;91.40;;;;;;4651952;28;19952;-77
2021/11/27 01:33:57;;;;;;;;;;;5.30;91.30;;;;;;4652206;28;20403;-76
2021/11/27 01:36:15;;;;;;;;;;;5.20;91.30;;;;;;4633951;28;19920;-76
2021/11/27 01:38:31;;;;;;;;;;;5.20;91.40;;;;;;4634112;28;20319;-77
2021/11/27 01:40:49;;;;;;;;;;;5.20;91.40;;;;;;4634116;28;19952;-77
2021/11/27 01:43:05;;;;;;;;;;;5.20;91.40;;;;;;4651921;28;19920;-77
2021/11/27 01:45:23;;;;;;;;;;;5.20;91.30;;;;;;4634020;28;19967;-77
2021/11/27 01:47:39;;;;;;;;;;;5.20;91.30;;;;;;4651619;28;20073;-76
2021/11/27 01:49:55;;;;;;;;;;;5.20;91.40;;;;;;4634150;28;19921;-77
2021/11/27 01:52:14;;;;;;;;;;;5.20;91.60;;;;;;4633616;28;19921;-77
2021/11/27 01:54:30;;;;;;;;;;;5.20;91.50;;;;;;4634089;28;19956;-77
2021/11/27 01:56:48;;;;;;;;;;;5.30;91.70;;;;;;4633546;28;20426;-77
2021/11/27 01:59:10;;;;;;;;;;;5.30;91.60;;;;;;4634106;28;20326;-77
2021/11/27 02:01:29;;;;;;;;;;;5.30;91.50;;;;;;4633506;28;19971;-77
2021/11/27 02:03:48;;;;;;;;;;;5.30;91.60;;;;;;4632337;28;20410;-76
2021/11/27 02:06:11;;;;;;;;;;;5.40;91.60;;;;;;4633396;28;19974;-78
2021/11/27 02:08:31;;;;;;;;;;;5.30;91.20;;;;;;4633797;28;19952;-77
2021/11/27 02:10:50;;;;;;;;;;;5.30;91.10;;;;;;4633358;28;20324;-77
2021/11/27 02:13:06;;;;;;;;;;;5.30;91.30;;;;;;4633740;28;19956;-77
2021/11/27 02:15:23;;;;;;;;;;;5.20;91.20;;;;;;4649984;28;20793;-77
2021/11/27 02:17:40;;;;;;;;;;;5.20;91.10;;;;;;4633360;28;20299;-77
2021/11/27 02:19:56;;;;;;;;;;;5.20;91.20;;;;;;4650339;28;20320;-76
2021/11/27 02:22:17;;;;;;;;;;;5.20;91.30;;;;;;4633223;28;20449;-77
2021/11/27 02:24:36;;;;;;;;;;;5.20;91.40;;;;;;4633646;28;19921;-77
2021/11/27 02:26:56;;;;;;;;;;;5.20;91.40;;;;;;4633242;28;20444;-77
2021/11/27 02:29:14;;;;;;;;;;;5.20;91.30;;;;;;4633282;28;19959;-79
2021/11/27 02:31:30;;;;;;;;;;;5.20;91.40;;;;;;4651087;28;19920;-75
2021/11/27 02:33:48;;;;;;;;;;;5.30;91.50;;;;;;4633197;28;19943;-75
2021/11/27 02:36:04;;;;;;;;;;;5.30;91.60;;;;;;4633135;28;19921;-76
2021/11/27 02:38:22;;;;;;;;;;;5.30;91.50;;;;;;4633308;28;19921;-77
2021/11/27 02:40:41;;;;;;;;;;;5.40;91.50;;;;;;4632829;28;20011;-77
2021/11/27 02:42:58;;;;;;;;;;;5.40;91.50;;;;;;4633246;28;19962;-76
2021/11/27 02:45:17;;;;;;;;;;;5.40;91.50;;;;;;4632930;28;19955;-77
2021/11/27 02:47:34;;;;;;;;;;;5.50;91.40;;;;;;4632306;28;19932;-77
2021/11/27 02:49:51;;;;;;;;;;;5.50;91.40;;;;;;4631805;28;20485;-77
2021/11/27 02:52:07;;;;;;;;;;;5.50;91.50;;;;;;4632556;28;20414;-77
2021/11/27 02:54:26;;;;;;;;;;;5.50;91.30;;;;;;4632360;28;19924;-77
2021/11/27 02:56:45;;;;;;;;;;;5.50;91.30;;;;;;4631657;28;19967;-77
2021/11/27 02:59:08;;;;;;;;;;;5.50;91.30;;;;;;4632348;28;19967;-78
2021/11/27 03:01:25;;;;;;;;;;;5.50;91.30;;;;;;4632461;28;19927;-78
2021/11/27 03:03:42;;;;;;;;;;;5.50;91.10;;;;;;4632988;28;19959;-77
2021/11/27 03:05:58;;;;;;;;;;;5.50;90.80;;;;;;4632438;28;19924;-78
2021/11/27 03:08:16;;;;;;;;;;;5.50;91.10;;;;;;4632457;28;19943;-78
2021/11/27 03:10:34;;;;;;;;;;;5.50;91.20;;;;;;4630495;28;20010;-78
2021/11/27 03:12:53;;;;;;;;;;;5.50;91.20;;;;;;4630632;28;20391;-78
2021/11/27 03:15:10;;;;;;;;;;;5.50;91.20;;;;;;4630031;28;19921;-79
2021/11/27 03:17:27;;;;;;;;;;;5.50;91.20;;;;;;4631203;28;20361;-77
2021/11/27 03:19:44;;;;;;;;;;;5.50;91.20;;;;;;4649124;28;19970;-77
2021/11/27 03:22:02;;;;;;;;;;;5.60;91.10;;;;;;4631275;28;20015;-77
2021/11/27 03:24:23;;;;;;;;;;;5.60;91.20;;;;;;4631630;28;19955;-77
2021/11/27 03:26:41;;;;;;;;;;;5.60;91.10;;;;;;4632427;28;20287;-77
2021/11/27 03:28:58;;;;;;;;;;;5.60;91.10;;;;;;4632127;28;20272;-77
2021/11/27 03:31:14;;;;;;;;;;;5.60;91.10;;;;;;4632462;28;20060;-81
2021/11/27 03:33:31;;;;;;;;;;;5.60;91.00;;;;;;4632559;28;19921;-80
2021/11/27 03:35:47;;;;;;;;;;;5.60;90.90;;;;;;4650105;28;19920;-80
2021/11/27 03:38:07;;;;;;;;;;;5.60;91.00;;;;;;4632409;28;20564;-77
2021/11/27 03:40:26;;;;;;;;;;;5.70;91.00;;;;;;4631798;28;19966;-76
2021/11/27 03:42:45;;;;;;;;;;;5.70;90.90;;;;;;4632121;28;20403;-78
2021/11/27 03:45:04;;;;;;;;;;;5.70;90.80;;;;;;4631888;28;19948;-77
2021/11/27 03:47:20;;;;;;;;;;;5.70;90.80;;;;;;4631855;28;19927;-78
2021/11/27 03:49:37;;;;;;;;;;;5.70;90.80;;;;;;4632368;28;19921;-77
2021/11/27 03:51:56;;;;;;;;;;;5.70;90.70;;;;;;4631937;28;20354;-78
2021/11/27 03:54:17;;;;;;;;;;;5.70;90.70;;;;;;4631431;28;19931;-77
2021/11/27 03:56:33;;;;;;;;;;;5.80;90.70;;;;;;4649652;28;19927;-76
2021/11/27 03:58:51;;;;;;;;;;;5.80;90.60;;;;;;4632759;28;19928;-79
2021/11/27 04:01:09;;;;;;;;;;;5.80;90.60;;;;;;4631969;28;19927;-77
2021/11/27 04:03:28;;;;;;;;;;;5.80;90.60;;;;;;4631918;28;19940;-78
2021/11/27 04:05:47;;;;;;;;;;;5.80;90.60;;;;;;4632031;28;20022;-78
2021/11/27 04:08:05;;;;;;;;;;;5.80;90.60;;;;;;4631610;28;19925;-78
2021/11/27 04:10:21;;;;;;;;;;;5.80;90.50;;;;;;4631758;28;19920;-77
2021/11/27 04:12:41;;;;;;;;;;;5.80;90.40;;;;;;4631748;28;19994;-77
2021/11/27 04:14:59;;;;;;;;;;;5.80;90.30;;;;;;4631362;28;19959;-78
2021/11/27 04:17:15;;;;;;;;;;;5.80;90.30;;;;;;4631667;28;20422;-77
2021/11/27 04:19:35;;;;;;;;;;;5.80;90.40;;;;;;4631382;28;19932;-79
2021/11/27 04:21:56;;;;;;;;;;;5.80;90.40;;;;;;4631638;28;19929;-78
2021/11/27 04:24:13;;;;;;;;;;;5.80;90.30;;;;;;4631521;28;20059;-79
2021/11/27 04:26:30;;;;;;;;;;;5.70;90.30;;;;;;4630450;28;19956;-77
2021/11/27 04:28:47;;;;;;;;;;;5.70;90.30;;;;;;4631312;28;20370;-77
2021/11/27 04:31:05;;;;;;;;;;;5.70;90.30;;;;;;4631508;28;19982;-76
2021/11/27 04:33:23;;;;;;;;;;;5.70;90.40;;;;;;4649384;28;20023;-79
2021/11/27 04:35:42;;;;;;;;;;;5.70;90.40;;;;;;4631733;28;20306;-78
2021/11/27 04:38:04;;;;;;;;;;;5.80;90.40;;;;;;4631555;28;19982;-78
2021/11/27 04:40:22;;;;;;;;;;;5.80;90.40;;;;;;4631682;28;19953;-78
2021/11/27 04:42:41;;;;;;;;;;;5.80;90.40;;;;;;4631199;28;19963;-78
2021/11/27 04:44:57;;;;;;;;;;;5.80;90.40;;;;;;4631337;28;20011;-78
2021/11/27 04:47:16;;;;;;;;;;;5.80;90.30;;;;;;4631355;28;19956;-77
2021/11/27 04:49:33;;;;;;;;;;;5.80;90.30;;;;;;4631069;28;19920;-77
2021/11/27 04:51:50;;;;;;;;;;;5.80;90.30;;;;;;4631391;28;19921;-78
2021/11/27 04:54:11;;;;;;;;;;;5.80;90.20;;;;;;4648920;28;19959;-79
2021/11/27 04:56:27;;;;;;;;;;;5.80;90.20;;;;;;4631377;28;19921;-76
2021/11/27 04:58:44;;;;;;;;;;;5.80;90.20;;;;;;4631281;28;19975;-77
2021/11/27 05:01:01;;;;;;;;;;;5.80;90.20;;;;;;4631113;28;19956;-77
2021/11/27 05:03:30;;;;;;;;;;;5.80;90.20;;;;;;4631218;28;20019;-77
2021/11/27 05:05:48;;;;;;;;;;;5.80;90.20;;;;;;4631290;28;19920;-77
2021/11/27 05:08:05;;;;;;;;;;;5.80;90.10;;;;;;4631124;28;20096;-79
2021/11/27 05:10:23;;;;;;;;;;;5.80;90.10;;;;;;4631255;28;19921;-79
2021/11/27 05:12:40;;;;;;;;;;;5.80;90.10;;;;;;4630821;28;19921;-79
2021/11/27 05:14:59;;;;;;;;;;;5.80;90.00;;;;;;4631166;28;19968;-77
2021/11/27 05:17:16;;;;;;;;;;;5.80;90.10;;;;;;4629677;28;19986;-77
2021/11/27 05:19:34;;;;;;;;;;;5.80;90.10;;;;;;4629167;28;19924;-77
2021/11/27 05:21:59;;;;;;;;;;;5.90;90.20;;;;;;4645980;28;19959;-77
2021/11/27 05:24:16;;;;;;;;;;;5.90;90.10;;;;;;4612737;28;19921;-78
2021/11/27 05:26:55;;;;;;;;;;;5.90;90.10;;;;;;4630362;28;19921;-77
2021/11/27 05:29:39;;;;;;;;;;;5.80;90.10;;;;;;4606922;28;19955;-78
2021/11/27 05:32:04;;;;;;;;;;;5.80;90.10;;;;;;4612927;28;19967;-77
2021/11/27 05:34:34;;;;;;;;;;;5.80;90.00;;;;;;4630173;28;20019;-78
2021/11/27 05:36:52;;;;;;;;;;;5.90;90.00;;;;;;4613194;28;19920;-79
2021/11/27 05:39:09;;;;;;;;;;;5.80;90.00;;;;;;4616463;28;19928;-79
2021/11/27 05:41:26;;;;;;;;;;;5.80;90.00;;;;;;4633603;28;20393;-78
2021/11/27 05:43:46;;;;;;;;;;;5.80;89.90;;;;;;4649292;28;19920;-78
2021/11/27 05:46:02;;;;;;;;;;;5.80;89.90;;;;;;4633606;28;20015;-78
2021/11/27 05:48:22;;;;;;;;;;;5.70;89.80;;;;;;4649222;28;20447;-78
2021/11/27 05:51:05;;;;;;;;;;;5.80;89.80;;;;;;4610060;28;19990;-79
2021/11/27 05:53:24;;;;;;;;;;;5.70;89.80;;;;;;4648773;28;19920;-77
2021/11/27 05:55:40;;;;;;;;;;;5.70;89.90;;;;;;4648705;28;19920;-78
2021/11/27 05:57:57;;;;;;;;;;;5.70;90.00;;;;;;4633755;28;20023;-78
2021/11/27 06:00:16;;;;;;;;;;;5.70;90.00;;;;;;4633187;28;19921;-77
2021/11/27 06:02:33;;;;;;;;;;;5.70;90.00;;;;;;4649135;28;20325;-79
2021/11/27 06:04:50;;;;;;;;;;;5.70;89.90;;;;;;4633153;28;19963;-76
2021/11/27 06:07:06;;;;;;;;;;;5.60;89.70;;;;;;4649031;28;19948;-75
2021/11/27 06:09:26;;;;;;;;;;;5.60;89.70;;;;;;4633255;28;20237;-76
2021/11/27 06:11:42;;;;;;;;;;;5.60;89.80;;;;;;4633188;28;19921;-77
2021/11/27 06:13:59;;;;;;;;;;;5.60;90.00;;;;;;4633441;28;19921;-77
2021/11/27 06:16:20;;;;;;;;;;;5.60;90.00;;;;;;4632925;28;19928;-79
2021/11/27 06:18:39;;;;;;;;;;;5.60;90.10;;;;;;4633245;28;20006;-77
2021/11/27 06:20:55;;;;;;;;;;;5.60;90.00;;;;;;4615040;28;19921;-77
2021/11/27 06:23:11;;;;;;;;;;;5.60;90.00;;;;;;4648806;28;19994;-78
2021/11/27 06:25:30;;;;;;;;;;;5.60;90.00;;;;;;4648543;28;19967;-77
2021/11/27 06:27:48;;;;;;;;;;;5.60;90.00;;;;;;4633212;28;19930;-74
2021/11/27 06:30:05;;;;;;;;;;;5.60;90.00;;;;;;4648242;28;19952;-75
2021/11/27 06:32:23;;;;;;;;;;;5.60;90.00;;;;;;4648489;28;19972;-77
2021/11/27 06:34:41;;;;;;;;;;;5.60;90.00;;;;;;4649876;28;19986;-76
2021/11/27 06:36:57;;;;;;;;;;;5.70;90.00;;;;;;4617223;28;19928;-77
2021/11/27 06:39:14;;;;;;;;;;;5.70;89.90;;;;;;4631286;28;20409;-77
2021/11/27 06:41:32;;;;;;;;;;;5.70;89.90;;;;;;4633257;28;19928;-76
2021/11/27 06:44:11;;;;;;;;;;;5.70;89.80;;;;;;4638775;28;19928;-76
2021/11/27 06:46:29;;;;;;;;;;;5.70;89.90;;;;;;4650976;28;20367;-78
2021/11/27 06:48:47;;;;;;;;;;;5.70;90.00;;;;;;4648636;28;19920;-77
2021/11/27 06:51:05;;;;;;;;;;;5.70;89.70;;;;;;4632789;28;20012;-78
2021/11/27 06:53:22;;;;;;;;;;;5.70;90.20;;;;;;4632898;28;19948;-78
2021/11/27 06:55:41;;;;;;;;;;;5.70;89.70;;;;;;4649523;28;19927;-77
2021/11/27 06:57:59;;;;;;;;;;;5.70;89.70;;;;;;4650869;28;19928;-77
2021/11/27 07:00:16;;;;;;;;;;;5.80;89.80;;;;;;4632751;28;20007;-77
2021/11/27 07:02:55;;;;;;;;;;;5.80;89.60;;;;;;4650572;28;20402;-77
2021/11/27 07:05:31;;;;;;;;;;;5.80;89.60;;;;;;4650439;28;20013;-80
2021/11/27 07:07:54;;;;;;;;;;;5.80;89.60;;;;;;4632905;28;19956;-79
2021/11/27 07:10:13;;;;;;;;;;;5.80;89.60;;;;;;4650535;28;19927;-78
2021/11/27 07:12:42;;;;;;;;;;;5.90;89.60;;;;;;4631592;28;19948;-79
2021/11/27 07:15:02;;;;;;;;;;;5.90;89.40;;;;;;4632729;28;19920;-79
2021/11/27 07:17:21;;;;;;;;;;;5.90;89.60;;;;;;4632247;28;20329;-79
2021/11/27 07:19:38;;;;;;;;;;;5.90;89.50;;;;;;4650652;28;20455;-76
2021/11/27 07:21:57;;;;;;;;;;;5.90;89.30;;;;;;4648545;28;20615;-77
2021/11/27 07:24:14;;;;;;;;;;;6.00;89.40;;;;;;4648960;28;19926;-78
2021/11/27 07:26:31;;;;;;;;;;;6.00;89.40;;;;;;4630465;28;19925;-75
2021/11/27 07:28:58;;;;;;;;;;;6.10;89.40;;;;;;4648677;28;19974;-77
2021/11/27 07:31:16;;;;;;;;;;;6.10;89.20;;;;;;4647885;28;19924;-76
2021/11/27 07:33:34;;;;;;;;;;;6.10;89.20;;;;;;4648683;28;19920;-76
2021/11/27 07:35:51;;;;;;;;;;;6.10;89.20;;;;;;4648733;28;19927;-76
2021/11/27 07:38:07;;;;;;;;;;;6.10;89.20;;;;;;4650156;28;20379;-76
2021/11/27 07:40:24;;;;;;;;;;;6.10;89.00;;;;;;4632052;28;20000;-76
2021/11/27 07:42:41;;;;;;;;;;;6.20;89.10;;;;;;4649784;28;19924;-76
2021/11/27 07:45:21;;;;;;;;;;;6.20;89.00;;;;;;4648817;28;19924;-77
2021/11/27 07:47:59;;;;;;;;;;;6.30;89.20;;;;;;4649249;28;19928;-77
2021/11/27 07:50:44;;;;;;;;;;;6.30;89.00;;;;;;4650053;28;19927;-77
2021/11/27 07:53:09;;;;;;;;;;;6.30;88.80;;;;;;4648163;28;19960;-77
2021/11/27 07:55:28;;;;;;;;;;;6.40;88.90;;;;;;4632261;28;19921;-77
2021/11/27 07:57:47;;;;;;;;;;;6.40;88.70;;;;;;4649365;28;19927;-76
2021/11/27 08:00:06;;;;;;;;;;;6.40;88.70;;;;;;4648294;28;19974;-76
2021/11/27 08:02:28;;;;;;;;;;;6.40;88.80;;;;;;4649811;28;19928;-78
2021/11/27 08:04:46;;;;;;;;;;;6.50;88.50;;;;;;4631691;28;20016;-76
2021/11/27 08:07:03;;;;;;;;;;;6.50;88.60;;;;;;4631953;28;19954;-76
2021/11/27 08:09:21;;;;;;;;;;;6.50;88.60;;;;;;4631498;28;20018;-76
2021/11/27 08:11:38;;;;;;;;;;;6.60;88.40;;;;;;4649717;28;19920;-77
2021/11/27 08:13:55;;;;;;;;;;;6.60;88.50;;;;;;4649375;28;19955;-78
2021/11/27 08:16:11;;;;;;;;;;;6.60;88.60;;;;;;4649849;28;20377;-78
2021/11/27 08:18:28;;;;;;;;;;;6.70;88.40;;;;;;4649049;28;19920;-78
2021/11/27 08:20:49;;;;;;;;;;;6.70;88.40;;;;;;4649761;28;19921;-76
2021/11/27 08:23:22;;;;;;;;;;;6.80;88.40;;;;;;4649243;28;19925;-76
2021/11/27 08:25:39;;;;;;;;;;;6.80;88.30;;;;;;4631678;28;20345;-77
2021/11/27 08:27:55;;;;;;;;;;;6.80;88.20;;;;;;4631305;28;20022;-79
2021/11/27 08:30:12;;;;;;;;;;;6.90;88.10;;;;;;4649453;28;19928;-78
2021/11/27 08:32:30;;;;;;;;;;;6.90;87.80;;;;;;4649136;28;20388;-78
2021/11/27 08:34:46;;;;;;;;;;;6.90;87.70;;;;;;4631523;28;19955;-77
2021/11/27 08:37:05;;;;;;;;;;;6.90;87.80;;;;;;4631268;28;19921;-77
2021/11/27 08:39:21;;;;;;;;;;;7.00;87.60;;;;;;4629792;28;19929;-76
2021/11/27 08:41:38;;;;;;;;;;;7.00;87.70;;;;;;4649439;28;19955;-76
2021/11/27 08:43:55;;;;;;;;;;;7.00;87.70;;;;;;4631152;28;19920;-77
2021/11/27 08:46:13;;;;;;;;;;;7.10;87.60;;;;;;4629850;28;19946;-77
2021/11/27 08:48:30;;;;;;;;;;;7.10;87.70;;;;;;4612520;28;20328;-78
2021/11/27 08:50:47;;;;;;;;;;;7.10;87.60;;;;;;4622395;28;20432;-77
2021/11/27 08:53:05;;;;;;;;;;;7.20;87.60;;;;;;4630175;28;19999;-76
2021/11/27 08:55:21;;;;;;;;;;;7.20;87.40;;;;;;4613192;28;19952;-77
2021/11/27 08:57:39;;;;;;;;;;;7.30;87.40;;;;;;4612591;28;19921;-77
2021/11/27 08:59:56;;;;;;;;;;;7.30;87.10;;;;;;4631074;28;20639;-77
2021/11/27 09:02:15;;;;;;;;;;;7.30;87.20;;;;;;4630211;28;19921;-77
2021/11/27 09:04:31;;;;;;;;;;;7.40;87.20;;;;;;4613102;28;20282;-78
2021/11/27 09:06:48;;;;;;;;;;;7.40;87.30;;;;;;4630335;28;19967;-77
2021/11/27 09:09:06;;;;;;;;;;;7.50;87.00;;;;;;4630831;28;19921;-78
2021/11/27 09:11:23;;;;;;;;;;;7.50;87.00;;;;;;4630513;28;19927;-79
2021/11/27 09:13:40;;;;;;;;;;;7.50;87.10;;;;;;4616020;28;20390;-80
2021/11/27 09:15:57;;;;;;;;;;;7.60;87.00;;;;;;4633342;28;19958;-78
2021/11/27 09:18:13;;;;;;;;;;;7.70;86.80;;;;;;4633959;28;19921;-78
2021/11/27 09:20:32;;;;;;;;;;;7.70;86.70;;;;;;4633301;28;20343;-81
2021/11/27 09:22:49;;;;;;;;;;;7.70;86.40;;;;;;4634076;28;19955;-78
2021/11/27 09:25:07;;;;;;;;;;;7.80;86.40;;;;;;4616405;28;19928;-77
2021/11/27 09:27:24;;;;;;;;;;;7.80;86.40;;;;;;4633870;28;20321;-77
2021/11/27 09:29:41;;;;;;;;;;;7.80;86.20;;;;;;4634245;28;19960;-76
2021/11/27 09:31:59;;;;;;;;;;;7.80;86.10;;;;;;4615716;28;19927;-77
2021/11/27 09:34:16;;;;;;;;;;;7.80;85.80;;;;;;4616473;28;19924;-79
2021/11/27 09:36:36;;;;;;;;;;;7.80;86.00;;;;;;4616244;28;20378;-77
2021/11/27 09:38:52;;;;;;;;;;;7.80;86.10;;;;;;4633937;28;19921;-78
2021/11/27 09:41:17;;;;;;;;;;;7.80;86.10;;;;;;4615520;28;19921;-79
2021/11/27 09:43:34;;;;;;;;;;;7.90;86.10;;;;;;4632770;28;20012;-77
2021/11/27 09:45:52;;;;;;;;;;;7.90;85.50;;;;;;4632082;28;19971;-77
2021/11/27 09:48:11;;;;;;;;;;;7.90;85.60;;;;;;4626825;28;20364;-79
2021/11/27 09:50:28;;;;;;;;;;;7.90;86.00;;;;;;4615766;28;20008;-77
2021/11/27 09:52:48;;;;;;;;;;;7.90;86.10;;;;;;4633207;28;19921;-77
2021/11/27 09:55:04;;;;;;;;;;;7.90;86.10;;;;;;4617456;28;20377;-79
2021/11/27 09:57:23;;;;;;;;;;;8.00;86.10;;;;;;4633899;28;19952;-77
2021/11/27 09:59:40;;;;;;;;;;;8.00;86.00;;;;;;4651952;28;19966;-78
2021/11/27 10:01:57;;;;;;;;;;;8.10;86.30;;;;;;4633553;28;19931;-79
2021/11/27 10:04:14;;;;;;;;;;;8.00;85.40;;;;;;4652060;28;19962;-78
2021/11/27 10:06:34;;;;;;;;;;;8.00;85.30;;;;;;4633646;28;20385;-79
2021/11/27 10:08:50;;;;;;;;;;;8.00;85.70;;;;;;4652066;28;19924;-80
2021/11/27 10:11:07;;;;;;;;;;;8.10;85.80;;;;;;4651424;28;20001;-80
2021/11/27 10:13:26;;;;;;;;;;;8.10;85.70;;;;;;4651911;28;19927;-81
2021/11/27 10:15:48;;;;;;;;;;;8.10;85.90;;;;;;4633322;28;19921;-81
2021/11/27 10:18:13;;;;;;;;;;;8.20;85.90;;;;;;4652239;28;19959;-82
2021/11/27 10:20:34;;;;;;;;;;;8.30;85.40;;;;;;4633660;28;20314;-80
2021/11/27 10:22:52;;;;;;;;;;;8.30;85.40;;;;;;4633652;28;19920;-79
2021/11/27 10:25:22;;;;;;;;;;;8.30;85.10;;;;;;4651571;28;19952;-80
2021/11/27 10:27:47;;;;;;;;;;;8.40;85.00;;;;;;4651275;28;19920;-79
2021/11/27 10:30:07;;;;;;;;;;;8.40;84.60;;;;;;4651982;28;20011;-81
2021/11/27 10:32:30;;;;;;;;;;;8.40;84.70;;;;;;4651211;28;19962;-80
2021/11/27 10:34:48;;;;;;;;;;;8.40;85.00;;;;;;4651489;28;19927;-79
2021/11/27 10:37:20;;;;;;;;;;;8.40;84.70;;;;;;4651102;28;19959;-79
2021/11/27 10:39:36;;;;;;;;;;;8.50;85.00;;;;;;4633735;28;20428;-78
2021/11/27 10:41:56;;;;;;;;;;;8.50;84.50;;;;;;4650612;28;20329;-77
2021/11/27 10:44:13;;;;;;;;;;;8.60;84.50;;;;;;4651320;28;19920;-79
2021/11/27 10:46:32;;;;;;;;;;;8.60;84.50;;;;;;4650742;28;19920;-79
2021/11/27 10:48:48;;;;;;;;;;;8.60;84.00;;;;;;4651430;28;19960;-80
2021/11/27 10:51:05;;;;;;;;;;;8.70;83.90;;;;;;4650607;28;20487;-81
2021/11/27 10:53:23;;;;;;;;;;;8.70;84.00;;;;;;4632649;28;20402;-78
2021/11/27 10:55:40;;;;;;;;;;;8.70;83.60;;;;;;4650864;28;20311;-78
2021/11/27 10:58:00;;;;;;;;;;;8.70;84.50;;;;;;4632638;28;19925;-79
2021/11/27 11:00:28;;;;;;;;;;;8.70;83.90;;;;;;4651064;28;20005;-78
2021/11/27 11:02:49;;;;;;;;;;;8.70;83.60;;;;;;4650506;28;20480;-76
2021/11/27 11:05:10;;;;;;;;;;;8.70;83.90;;;;;;4633446;28;19928;-76
2021/11/27 11:07:28;;;;;;;;;;;8.70;83.60;;;;;;4650491;28;19962;-81
2021/11/27 11:09:59;;;;;;;;;;;8.70;83.90;;;;;;4650911;28;20364;-79
2021/11/27 11:12:16;;;;;;;;;;;8.70;83.30;;;;;;4624856;28;20338;-80
2021/11/27 11:14:33;;;;;;;;;;;8.70;83.80;;;;;;4624704;28;20449;-78
2021/11/27 11:16:55;;;;;;;;;;;8.70;83.40;;;;;;4649229;28;19999;-78
2021/11/27 11:19:16;;;;;;;;;;;8.70;83.40;;;;;;4630771;28;19921;-77
2021/11/27 11:21:33;;;;;;;;;;;8.70;83.70;;;;;;4630828;28;19971;-77
2021/11/27 11:23:50;;;;;;;;;;;8.70;83.10;;;;;;4639598;28;19926;-75
2021/11/27 11:26:27;;;;;;;;;;;8.70;83.30;;;;;;4640605;28;19921;-77
2021/11/27 11:28:47;;;;;;;;;;;8.70;83.40;;;;;;4623029;28;20005;-78
2021/11/27 11:31:06;;;;;;;;;;;8.80;83.70;;;;;;4634664;28;20278;-77
2021/11/27 11:33:25;;;;;;;;;;;8.90;83.40;;;;;;4631489;28;20300;-76
2021/11/27 11:35:44;;;;;;;;;;;9.00;82.90;;;;;;4639329;28;20316;-79
2021/11/27 11:38:01;;;;;;;;;;;9.00;82.40;;;;;;4621463;28;20379;-79
2021/11/27 11:40:17;;;;;;;;;;;9.00;82.60;;;;;;4622030;28;19920;-80
2021/11/27 11:42:34;;;;;;;;;;;8.90;82.10;;;;;;4646197;28;19959;-79
2021/11/27 11:44:54;;;;;;;;;;;8.90;82.30;;;;;;4632462;28;20015;-77
2021/11/27 11:47:10;;;;;;;;;;;8.90;82.30;;;;;;4649513;28;19927;-78
2021/11/27 11:49:27;;;;;;;;;;;9.00;82.40;;;;;;4649702;28;19960;-78
2021/11/27 11:51:47;;;;;;;;;;;9.00;82.10;;;;;;4631553;28;19931;-77
2021/11/27 11:54:07;;;;;;;;;;;9.10;82.20;;;;;;4649188;28;19951;-78
2021/11/27 11:56:30;;;;;;;;;;;9.10;82.00;;;;;;4649689;28;20001;-77
2021/11/27 11:58:49;;;;;;;;;;;9.20;81.90;;;;;;4631573;28;20400;-78
2021/11/27 12:01:07;;;;;;;;;;;9.20;81.30;;;;;;4632172;28;19928;-78
2021/11/27 12:03:32;;;;;;;;;;;9.20;81.60;;;;;;4649250;28;19959;-77
2021/11/27 12:06:02;;;;;;;;;;;9.20;81.20;;;;;;4632028;28;19978;-77
2021/11/27 12:08:41;;;;;;;;;;;9.20;81.40;;;;;;4631455;28;19927;-77
2021/11/27 12:11:00;;;;;;;;;;;9.20;81.30;;;;;;4632022;28;19952;-76
2021/11/27 12:13:31;;;;;;;;;;;9.10;81.30;;;;;;4631589;28;20338;-76
2021/11/27 12:16:01;;;;;;;;;;;9.10;81.50;;;;;;4649391;28;19966;-77
2021/11/27 12:18:19;;;;;;;;;;;9.10;81.10;;;;;;4649772;28;20015;-77
2021/11/27 12:20:43;;;;;;;;;;;9.10;81.20;;;;;;4631286;28;20382;-76
2021/11/27 12:22:59;;;;;;;;;;;9.10;81.00;;;;;;4649830;28;19920;-80
2021/11/27 12:25:20;;;;;;;;;;;9.00;81.10;;;;;;4631226;28;20382;-81
2021/11/27 12:27:56;;;;;;;;;;;9.00;80.60;;;;;;4649742;28;19962;-79
2021/11/27 12:30:13;;;;;;;;;;;9.00;81.10;;;;;;4648831;28;19983;-79
2021/11/27 12:32:35;;;;;;;;;;;9.00;81.40;;;;;;4615422;28;19921;-79
2021/11/27 12:34:52;;;;;;;;;;;9.00;81.70;;;;;;4631404;28;19956;-77
2021/11/27 12:37:23;;;;;;;;;;;9.00;81.70;;;;;;4631528;28;19950;-77
2021/11/27 12:39:40;;;;;;;;;;;9.00;81.20;;;;;;4649324;28;19970;-77
2021/11/27 12:44:44;;;;;;;;;;;9.10;81.10;;;;;;4705595;27;20277;-77
2021/11/27 12:47:01;;;;;;;;;;;9.10;80.70;;;;;;4703544;28;20407;-76
2021/11/27 12:49:47;;;;;;;;;;;9.00;81.30;;;;;;4704978;27;19924;-75
2021/11/27 12:52:33;;;;;;;;;;;9.00;81.10;;;;;;4680622;27;19947;-77
2021/11/27 12:54:51;;;;;;;;;;;9.00;81.10;;;;;;4664709;28;19932;-79
2021/11/27 12:57:12;;;;;;;;;;;9.00;81.30;;;;;;4687175;28;19958;-80
2021/11/27 12:59:28;;;;;;;;;;;9.00;81.40;;;;;;4702894;28;20011;-75
2021/11/27 13:01:46;;;;;;;;;;;9.00;80.90;;;;;;4705273;27;19924;-72
2021/11/27 13:04:03;;;;;;;;;;;9.00;81.10;;;;;;4703162;27;20011;-73
2021/11/27 13:06:19;;;;;;;;;;;8.90;81.20;;;;;;4702952;28;19932;-75
2021/11/27 13:08:35;;;;;;;;;;;8.90;81.30;;;;;;4693067;28;19956;-75
2021/11/27 13:10:53;;;;;;;;;;;8.90;81.40;;;;;;4682450;28;20384;-75
2021/11/27 13:13:16;;;;;;;;;;;8.80;81.40;;;;;;4682304;28;19931;-75
2021/11/27 13:15:32;;;;;;;;;;;8.90;81.70;;;;;;4683158;28;19951;-75
2021/11/27 13:18:03;;;;;;;;;;;8.80;81.60;;;;;;4682905;28;20036;-75
2021/11/27 13:20:21;;;;;;;;;;;8.80;81.70;;;;;;4682018;28;19931;-75
2021/11/27 13:22:37;;;;;;;;;;;8.80;81.80;;;;;;4683212;28;19959;-75
2021/11/27 13:24:54;;;;;;;;;;;8.70;81.60;;;;;;4681733;28;19997;-75
2021/11/27 13:27:18;;;;;;;;;;;8.80;81.80;;;;;;4682895;28;19931;-75
2021/11/27 13:29:34;;;;;;;;;;;8.70;82.00;;;;;;4681529;28;19931;-75
2021/11/27 13:31:52;;;;;;;;;;;8.70;82.00;;;;;;4682790;28;20362;-75
2021/11/27 13:34:10;;;;;;;;;;;8.70;82.10;;;;;;4682745;28;20370;-75
2021/11/27 13:36:42;;;;;;;;;;;8.70;82.30;;;;;;4682775;28;19930;-75
2021/11/27 13:39:10;;;;;;;;;;;8.80;82.40;;;;;;4682542;28;20385;-75
2021/11/27 13:41:26;;;;;;;;;;;8.80;82.30;;;;;;4683824;28;19928;-75
2021/11/27 13:43:46;;;;;;;;;;;8.70;82.10;;;;;;4695425;28;19932;-75
2021/11/27 13:46:04;;;;;;;;;;;8.70;82.30;;;;;;4684417;28;19971;-76
2021/11/27 13:48:21;;;;;;;;;;;8.80;82.40;;;;;;4685929;28;19971;-76